createdAt,value
2018-11-04T00:09:26.554Z,26.93
2018-11-04T00:11:55.014Z,26.87
2018-11-04T00:31:44.657Z,28.73
2018-11-04T00:34:13.474Z,28.43
2018-11-04T00:36:41.913Z,28.47
2018-11-04T00:56:30.581Z,29.47
2018-11-04T00:58:58.985Z,28.27
2018-11-04T01:18:48.394Z,27.97
2018-11-04T01:21:16.814Z,27.50
2018-11-04T01:23:45.217Z,27.73
2018-11-04T01:43:35.264Z,28.30
2018-11-04T01:46:03.710Z,28.60
2018-11-04T01:48:32.170Z,29.17
2018-11-04T01:51:00.604Z,31.07
2018-11-04T01:53:29.030Z,32.00
2018-11-04T01:55:57.457Z,31.03
2018-11-04T01:58:26.175Z,30.20
2018-11-04T02:18:15.355Z,30.10
2018-11-04T02:20:43.794Z,30.80
2018-11-04T02:23:12.198Z,30.57
2018-11-04T02:25:40.602Z,30.23
2018-11-04T02:45:30.207Z,30.53
2018-11-04T02:47:58.618Z,32.70
2018-11-04T02:50:27.022Z,31.50
2018-11-04T03:10:16.544Z,33.57
2018-11-04T03:12:44.945Z,34.30
2018-11-04T03:15:13.374Z,33.53
2018-11-04T03:35:01.756Z,31.20
2018-11-04T03:37:30.182Z,32.90
2018-11-04T03:39:58.601Z,32.63
2018-11-04T03:42:27.066Z,33.50
2018-11-04T03:44:55.673Z,33.50
2018-11-04T03:47:24.122Z,36.63
2018-11-04T03:49:52.835Z,33.70
2018-11-04T03:52:21.285Z,33.90
2018-11-04T03:54:49.700Z,35.17
2018-11-04T03:57:18.167Z,34.33
2018-11-04T03:59:46.601Z,36.43
2018-11-04T04:19:35.539Z,39.57
2018-11-04T04:22:04.090Z,37.77
2018-11-04T04:24:32.490Z,41.37
2018-11-04T04:44:23.173Z,42.33
2018-11-04T05:04:11.563Z,42.83
2018-11-04T05:24:00.821Z,42.07
2018-11-04T05:26:29.343Z,43.83
2018-11-04T05:28:57.757Z,41.63
2018-11-04T05:31:26.449Z,43.00
2018-11-04T05:33:54.873Z,44.00
2018-11-04T05:36:23.270Z,42.57
2018-11-04T05:38:51.905Z,43.97
2018-11-04T05:41:20.321Z,42.20
2018-11-04T06:01:08.585Z,41.63
2018-11-04T06:03:37.012Z,40.73
2018-11-04T06:06:05.504Z,45.43
2018-11-04T06:08:34.240Z,40.43
2018-11-04T06:11:02.667Z,40.73
2018-11-04T06:13:31.072Z,43.03
2018-11-04T06:15:59.526Z,40.93
2018-11-04T06:18:27.929Z,40.47
2018-11-04T06:20:56.342Z,41.60
2018-11-04T06:40:47.413Z,40.90
2018-11-04T06:43:16.072Z,40.00
2018-11-04T06:45:44.482Z,41.30
2018-11-04T06:48:13.078Z,42.20
2018-11-04T06:50:41.485Z,40.43
2018-11-04T06:53:09.891Z,40.87
2018-11-04T06:55:38.638Z,42.63
2018-11-04T07:15:25.578Z,40.83
2018-11-04T07:35:15.130Z,45.63
2018-11-04T07:37:43.582Z,45.07
2018-11-04T07:40:12.004Z,44.80
2018-11-04T07:42:40.566Z,46.07
2018-11-04T07:45:09.733Z,45.00
2018-11-04T07:47:38.144Z,43.97
2018-11-04T07:50:09.812Z,48.97
2018-11-04T07:52:38.365Z,45.97
2018-11-04T07:55:09.030Z,44.63
2018-11-04T07:57:39.630Z,48.07
2018-11-04T08:00:10.930Z,43.50
2018-11-04T08:02:39.393Z,44.77
2018-11-04T08:05:08.814Z,46.40
2018-11-04T08:24:55.867Z,46.33
2018-11-04T08:27:24.279Z,44.83
2018-11-04T08:47:13.117Z,44.57
2018-11-04T08:49:41.527Z,46.00
2018-11-04T08:52:10.062Z,50.63
2018-11-04T08:54:38.714Z,50.20
2018-11-04T08:57:07.360Z,48.80
2018-11-04T08:59:35.956Z,46.00
2018-11-04T09:02:04.800Z,46.50
2018-11-04T09:21:52.553Z,40.33
2018-11-04T09:24:20.961Z,40.13
2018-11-04T09:26:49.386Z,40.03
2018-11-04T09:29:17.905Z,42.03
2018-11-04T09:31:46.416Z,42.13
2018-11-04T09:34:14.830Z,40.20
2018-11-04T09:36:43.250Z,39.07
2018-11-04T09:39:12.542Z,39.47
2018-11-04T09:41:40.953Z,43.37
2018-11-04T09:44:09.356Z,41.63
2018-11-04T09:46:37.819Z,38.63
2018-11-04T10:06:26.977Z,41.23
2018-11-04T10:08:55.631Z,40.80
2018-11-04T10:11:24.053Z,41.37
2018-11-04T10:13:52.449Z,42.67
2018-11-04T10:16:21.009Z,42.03
2018-11-04T10:18:49.777Z,41.20
2018-11-04T10:21:18.126Z,39.43
2018-11-04T10:23:46.644Z,42.43
2018-11-04T10:43:35.156Z,42.50
2018-11-04T11:03:24.094Z,45.07
2018-11-04T11:05:52.579Z,42.30
2018-11-04T11:08:21.002Z,41.10
2018-11-04T11:10:52.153Z,41.80
2018-11-04T11:13:20.806Z,41.07
2018-11-04T11:15:49.434Z,40.27
2018-11-04T11:35:39.983Z,43.77
2018-11-04T11:38:08.524Z,41.50
2018-11-04T11:40:36.909Z,43.83
2018-11-04T11:43:05.749Z,41.50
2018-11-04T11:45:34.158Z,43.57
2018-11-04T11:48:02.682Z,41.60
2018-11-04T11:50:31.113Z,41.50
2018-11-04T11:52:59.532Z,43.17
2018-11-04T12:12:49.161Z,40.60
2018-11-04T12:15:17.601Z,40.50
2018-11-04T12:17:46.057Z,39.73
2018-11-04T12:20:14.548Z,39.73
2018-11-04T12:40:05.664Z,40.13
2018-11-04T13:00:03.214Z,39.60
2018-11-04T13:02:31.626Z,39.77
2018-11-04T13:05:00.043Z,39.33
2018-11-04T13:24:50.338Z,43.13
2018-11-04T13:27:18.758Z,52.43
2018-11-04T13:29:47.322Z,46.13
2018-11-04T13:32:16.297Z,49.73
2018-11-04T13:52:06.955Z,51.50
2018-11-04T14:11:56.714Z,42.70
2018-11-04T14:14:25.118Z,40.23
2018-11-04T14:16:53.530Z,41.17
2018-11-04T14:19:22.319Z,44.93
2018-11-04T14:21:50.775Z,40.00
2018-11-04T14:24:19.187Z,39.07
2018-11-04T14:26:47.987Z,39.93
2018-11-04T14:29:16.434Z,38.20
2018-11-04T14:31:44.849Z,38.20
2018-11-04T14:34:13.435Z,40.03
2018-11-04T14:36:41.840Z,40.10
2018-11-04T14:56:31.166Z,40.07
2018-11-04T14:59:00.049Z,38.17
2018-11-04T15:01:28.475Z,36.63
2018-11-04T15:21:17.722Z,37.07
2018-11-04T15:23:46.145Z,36.67
2018-11-04T15:26:14.558Z,34.63
2018-11-04T15:28:43.284Z,34.30
2018-11-04T15:31:11.739Z,36.43
2018-11-04T15:33:40.158Z,35.40
2018-11-04T15:36:08.858Z,34.60
2018-11-04T15:38:37.424Z,37.70
2018-11-04T15:41:06.617Z,39.27
2018-11-04T15:43:35.333Z,35.30
2018-11-04T15:46:03.761Z,36.17
2018-11-04T15:48:32.196Z,34.00
2018-11-04T15:51:00.645Z,36.33
2018-11-04T16:10:50.814Z,37.97
2018-11-04T16:30:39.511Z,36.47
2018-11-04T16:50:28.934Z,40.07
2018-11-04T17:10:18.481Z,34.83
2018-11-04T17:12:46.886Z,38.03
2018-11-04T17:15:15.686Z,39.97
2018-11-04T17:17:45.129Z,35.67
2018-11-04T17:37:35.854Z,37.67
2018-11-04T17:40:06.275Z,36.43
2018-11-04T17:59:55.970Z,35.17
2018-11-04T18:02:24.616Z,35.80
2018-11-04T18:22:13.922Z,36.63
2018-11-04T18:42:03.449Z,34.43
2018-11-04T19:01:53.050Z,33.23
2018-11-04T19:04:21.506Z,34.07
2018-11-04T19:06:49.929Z,33.67
2018-11-04T19:09:18.427Z,34.87
2018-11-04T19:29:07.947Z,33.17
2018-11-04T19:31:36.418Z,34.07
2018-11-04T19:34:04.854Z,34.20
2018-11-04T19:36:33.566Z,33.40
2018-11-04T19:56:23.151Z,31.20
2018-11-04T19:58:51.753Z,34.63
2018-11-04T20:18:45.401Z,33.60
2018-11-04T20:21:13.868Z,33.30
2018-11-04T20:23:42.274Z,31.77
2018-11-04T20:26:11.869Z,31.80
2018-11-04T20:28:40.807Z,31.70
2018-11-04T20:31:09.257Z,32.13
2018-11-04T20:51:05.750Z,32.00
2018-11-04T21:10:54.853Z,32.30
2018-11-04T21:13:23.307Z,30.23
2018-11-04T21:15:51.804Z,31.97
2018-11-04T21:18:20.141Z,29.50
2018-11-04T21:20:48.590Z,27.87
2018-11-04T21:23:16.997Z,29.87
2018-11-04T21:43:05.865Z,29.70
2018-11-04T22:02:55.141Z,30.93
2018-11-04T22:22:44.545Z,28.17
2018-11-04T22:42:34.658Z,27.30
2018-11-04T22:45:03.359Z,29.37
2018-11-04T22:47:31.802Z,28.73
2018-11-04T22:50:00.205Z,27.80
2018-11-04T22:52:28.685Z,28.87
2018-11-04T22:54:57.373Z,31.53
2018-11-04T22:57:25.778Z,28.70
2018-11-04T22:59:54.449Z,29.17
2018-11-04T23:02:23.133Z,26.27
2018-11-04T23:04:56.949Z,26.83
2018-11-04T23:07:25.355Z,28.13
2018-11-04T23:09:53.762Z,29.60
2018-11-04T23:12:22.320Z,30.60
2018-11-04T23:14:50.729Z,31.77
2018-11-04T23:17:19.146Z,26.83
2018-11-04T23:19:47.676Z,35.43
2018-11-04T23:39:37.355Z,31.23
2018-11-04T23:42:06.191Z,33.60
